sensor_id;sensor_type;location;lat;lon;timestamp;P1;durP1;ratioP1;P2;durP2;ratioP2
5414;SDS011;2730;51.512;7.504;2022-09-23T05:01:12;3.65;;;2.08;;
5414;SDS011;2730;51.512;7.504;2022-09-23T05:03:41;4.50;;;2.22;;
5414;SDS011;2730;51.512;7.504;2022-09-23T05:06:08;4.00;;;2.60;;
5414;SDS011;2730;51.512;7.504;2022-09-23T05:08:37;7.50;;;2.20;;
5414;SDS011;2730;51.512;7.504;2022-09-23T05:11:05;2.97;;;2.60;;
5414;SDS011;2730;51.512;7.504;2022-09-23T05:13:33;3.75;;;2.45;;
5414;SDS011;2730;51.512;7.504;2022-09-23T05:16:00;6.97;;;1.80;;
5414;SDS011;2730;51.512;7.504;2022-09-23T05:18:30;3.28;;;1.92;;
5414;SDS011;2730;51.512;7.504;2022-09-23T05:20:58;2.55;;;2.13;;
5414;SDS011;2730;51.512;7.504;2022-09-23T05:23:25;8.13;;;2.17;;
5414;SDS011;2730;51.512;7.504;2022-09-23T05:25:54;5.60;;;2.53;;
5414;SDS011;2730;51.512;7.504;2022-09-23T05:28:23;4.60;;;2.20;;
5414;SDS011;2730;51.512;7.504;2022-09-23T05:30:50;4.35;;;2.40;;
5414;SDS011;2730;51.512;7.504;2022-09-23T05:33:17;6.00;;;2.25;;
5414;SDS011;2730;51.512;7.504;2022-09-23T05:35:46;3.60;;;2.40;;
5414;SDS011;2730;51.512;7.504;2022-09-23T05:38:13;2.65;;;2.40;;
5414;SDS011;2730;51.512;7.504;2022-09-23T05:40:41;3.75;;;2.03;;
5414;SDS011;2730;51.512;7.504;2022-09-23T05:43:08;3.25;;;2.45;;
5414;SDS011;2730;51.512;7.504;2022-09-23T05:45:35;7.10;;;2.45;;
5414;SDS011;2730;51.512;7.504;2022-09-23T05:48:02;2.75;;;2.17;;
5414;SDS011;2730;51.512;7.504;2022-09-23T05:50:29;6.18;;;2.05;;
5414;SDS011;2730;51.512;7.504;2022-09-23T05:52:57;10.25;;;2.45;;
5414;SDS011;2730;51.512;7.504;2022-09-23T05:55:24;11.82;;;2.38;;
5414;SDS011;2730;51.512;7.504;2022-09-23T05:57:52;3.70;;;2.08;;
5414;SDS011;2730;51.512;7.504;2022-09-23T06:00:19;7.90;;;2.70;;
5414;SDS011;2730;51.512;7.504;2022-09-23T06:02:46;5.32;;;2.25;;
5414;SDS011;2730;51.512;7.504;2022-09-23T06:05:13;5.93;;;1.80;;
5414;SDS011;2730;51.512;7.504;2022-09-23T06:07:42;8.68;;;2.45;;
5414;SDS011;2730;51.512;7.504;2022-09-23T06:10:11;2.40;;;2.20;;
5414;SDS011;2730;51.512;7.504;2022-09-23T06:12:38;2.08;;;1.90;;
5414;SDS011;2730;51.512;7.504;2022-09-23T06:15:06;3.20;;;1.60;;
5414;SDS011;2730;51.512;7.504;2022-09-23T06:17:33;2.72;;;1.90;;
5414;SDS011;2730;51.512;7.504;2022-09-23T06:20:00;7.40;;;2.10;;
5414;SDS011;2730;51.512;7.504;2022-09-23T06:22:27;3.75;;;2.15;;
5414;SDS011;2730;51.512;7.504;2022-09-23T06:24:54;3.70;;;1.80;;
5414;SDS011;2730;51.512;7.504;2022-09-23T06:27:22;2.55;;;2.10;;
5414;SDS011;2730;51.512;7.504;2022-09-23T06:29:49;2.85;;;2.22;;
5414;SDS011;2730;51.512;7.504;2022-09-23T06:32:16;1.90;;;1.75;;
5414;SDS011;2730;51.512;7.504;2022-09-23T06:34:43;2.45;;;2.25;;
5414;SDS011;2730;51.512;7.504;2022-09-23T06:37:10;2.17;;;1.98;;
5414;SDS011;2730;51.512;7.504;2022-09-23T06:39:37;5.88;;;2.05;;
5414;SDS011;2730;51.512;7.504;2022-09-23T06:42:04;2.95;;;1.75;;
5414;SDS011;2730;51.512;7.504;2022-09-23T06:44:33;4.40;;;2.05;;
5414;SDS011;2730;51.512;7.504;2022-09-23T06:47:00;2.65;;;2.17;;
5414;SDS011;2730;51.512;7.504;2022-09-23T06:49:26;4.20;;;1.90;;
5414;SDS011;2730;51.512;7.504;2022-09-23T06:51:53;5.43;;;1.95;;
5414;SDS011;2730;51.512;7.504;2022-09-23T06:54:21;2.45;;;1.65;;
5414;SDS011;2730;51.512;7.504;2022-09-23T06:56:47;4.45;;;1.90;;
5414;SDS011;2730;51.512;7.504;2022-09-23T06:59:14;2.10;;;1.88;;
5414;SDS011;2730;51.512;7.504;2022-09-23T07:01:43;2.80;;;1.80;;
5414;SDS011;2730;51.512;7.504;2022-09-23T07:04:12;3.25;;;1.95;;
5414;SDS011;2730;51.512;7.504;2022-09-23T07:06:39;2.25;;;1.83;;
5414;SDS011;2730;51.512;7.504;2022-09-23T07:09:06;4.43;;;2.17;;
5414;SDS011;2730;51.512;7.504;2022-09-23T07:11:35;4.97;;;1.80;;
5414;SDS011;2730;51.512;7.504;2022-09-23T07:14:02;4.15;;;1.90;;
5414;SDS011;2730;51.512;7.504;2022-09-23T07:16:28;14.35;;;4.53;;
5414;SDS011;2730;51.512;7.504;2022-09-23T07:18:58;17.35;;;2.90;;
5414;SDS011;2730;51.512;7.504;2022-09-23T07:21:25;3.15;;;2.10;;
5414;SDS011;2730;51.512;7.504;2022-09-23T07:23:52;3.15;;;1.90;;
5414;SDS011;2730;51.512;7.504;2022-09-23T07:26:19;2.15;;;1.55;;
5414;SDS011;2730;51.512;7.504;2022-09-23T07:28:47;1.95;;;1.75;;
5414;SDS011;2730;51.512;7.504;2022-09-23T07:31:18;1.60;;;1.40;;
5414;SDS011;2730;51.512;7.504;2022-09-23T07:33:45;2.35;;;1.67;;
5414;SDS011;2730;51.512;7.504;2022-09-23T07:36:14;2.08;;;1.90;;
5414;SDS011;2730;51.512;7.504;2022-09-23T07:38:42;3.95;;;1.80;;
5414;SDS011;2730;51.512;7.504;2022-09-23T07:41:11;2.30;;;1.80;;
5414;SDS011;2730;51.512;7.504;2022-09-23T07:43:40;4.18;;;2.00;;
5414;SDS011;2730;51.512;7.504;2022-09-23T07:46:08;1.80;;;1.70;;
5414;SDS011;2730;51.512;7.504;2022-09-23T07:48:38;3.30;;;1.73;;
5414;SDS011;2730;51.512;7.504;2022-09-23T07:51:05;4.77;;;1.60;;
5414;SDS011;2730;51.512;7.504;2022-09-23T07:53:34;1.50;;;1.40;;
5414;SDS011;2730;51.512;7.504;2022-09-23T07:56:02;3.40;;;1.73;;
5414;SDS011;2730;51.512;7.504;2022-09-23T07:58:30;1.77;;;1.40;;
5414;SDS011;2730;51.512;7.504;2022-09-23T08:01:02;2.10;;;1.93;;
5414;SDS011;2730;51.512;7.504;2022-09-23T08:03:32;3.37;;;1.50;;
5414;SDS011;2730;51.512;7.504;2022-09-23T08:06:03;1.70;;;1.60;;
5414;SDS011;2730;51.512;7.504;2022-09-23T08:08:32;4.10;;;2.80;;
5414;SDS011;2730;51.512;7.504;2022-09-23T08:11:01;1.70;;;1.60;;
5414;SDS011;2730;51.512;7.504;2022-09-23T08:13:29;3.20;;;1.87;;
5414;SDS011;2730;51.512;7.504;2022-09-23T08:15:56;3.97;;;1.90;;
5414;SDS011;2730;51.512;7.504;2022-09-23T08:18:23;1.97;;;1.83;;
5414;SDS011;2730;51.512;7.504;2022-09-23T08:20:50;8.37;;;1.90;;
5414;SDS011;2730;51.512;7.504;2022-09-23T08:23:17;3.37;;;1.70;;
5414;SDS011;2730;51.512;7.504;2022-09-23T08:25:45;2.77;;;2.00;;
5414;SDS011;2730;51.512;7.504;2022-09-23T08:28:13;2.13;;;1.60;;
5414;SDS011;2730;51.512;7.504;2022-09-23T08:30:42;2.73;;;1.57;;
5414;SDS011;2730;51.512;7.504;2022-09-23T08:33:10;7.83;;;2.07;;
5414;SDS011;2730;51.512;7.504;2022-09-23T08:35:39;3.13;;;1.53;;
5414;SDS011;2730;51.512;7.504;2022-09-23T08:42:04;1.87;;;1.77;;
5414;SDS011;2730;51.512;7.504;2022-09-23T08:44:45;2.83;;;2.63;;
5414;SDS011;2730;51.512;7.504;2022-09-23T08:47:15;2.63;;;2.00;;
5414;SDS011;2730;51.512;7.504;2022-09-23T08:49:48;2.07;;;1.90;;
5414;SDS011;2730;51.512;7.504;2022-09-23T08:52:22;2.50;;;1.70;;
5414;SDS011;2730;51.512;7.504;2022-09-23T08:54:53;2.07;;;1.80;;
5414;SDS011;2730;51.512;7.504;2022-09-23T08:57:26;2.50;;;1.93;;
5414;SDS011;2730;51.512;7.504;2022-09-23T09:00:03;5.33;;;2.70;;
5414;SDS011;2730;51.512;7.504;2022-09-23T09:02:31;1.70;;;1.57;;
5414;SDS011;2730;51.512;7.504;2022-09-23T09:05:01;3.17;;;1.83;;
5414;SDS011;2730;51.512;7.504;2022-09-23T09:07:32;2.17;;;2.07;;
5414;SDS011;2730;51.512;7.504;2022-09-23T09:10:02;4.50;;;1.80;;
5414;SDS011;2730;51.512;7.504;2022-09-23T09:12:33;2.43;;;1.83;;
5414;SDS011;2730;51.512;7.504;2022-09-23T09:15:09;2.20;;;1.63;;
5414;SDS011;2730;51.512;7.504;2022-09-23T09:17:39;5.07;;;2.10;;
5414;SDS011;2730;51.512;7.504;2022-09-23T09:20:17;3.77;;;2.20;;
5414;SDS011;2730;51.512;7.504;2022-09-23T09:22:50;2.00;;;1.90;;
5414;SDS011;2730;51.512;7.504;2022-09-23T09:28:12;2.30;;;2.10;;
5414;SDS011;2730;51.512;7.504;2022-09-23T09:30:41;2.50;;;1.70;;
5414;SDS011;2730;51.512;7.504;2022-09-23T09:33:12;2.07;;;1.80;;
5414;SDS011;2730;51.512;7.504;2022-09-23T09:35:46;3.37;;;1.70;;
5414;SDS011;2730;51.512;7.504;2022-09-23T09:38:21;2.27;;;2.07;;
5414;SDS011;2730;51.512;7.504;2022-09-23T09:40:48;7.43;;;1.93;;
5414;SDS011;2730;51.512;7.504;2022-09-23T09:43:17;6.00;;;1.60;;
5414;SDS011;2730;51.512;7.504;2022-09-23T09:45:50;4.00;;;1.60;;
5414;SDS011;2730;51.512;7.504;2022-09-23T09:48:29;2.03;;;1.70;;
5414;SDS011;2730;51.512;7.504;2022-09-23T09:51:14;4.13;;;2.07;;
5414;SDS011;2730;51.512;7.504;2022-09-23T09:53:43;1.50;;;1.40;;
5414;SDS011;2730;51.512;7.504;2022-09-23T09:56:11;2.07;;;1.90;;
5414;SDS011;2730;51.512;7.504;2022-09-23T09:58:44;2.23;;;1.97;;
5414;SDS011;2730;51.512;7.504;2022-09-23T10:01:20;4.13;;;1.93;;
5414;SDS011;2730;51.512;7.504;2022-09-23T10:03:49;3.00;;;1.73;;
5414;SDS011;2730;51.512;7.504;2022-09-23T10:06:18;4.27;;;1.33;;
5414;SDS011;2730;51.512;7.504;2022-09-23T10:11:38;2.73;;;1.80;;
5414;SDS011;2730;51.512;7.504;2022-09-23T10:14:10;2.50;;;2.30;;
5414;SDS011;2730;51.512;7.504;2022-09-23T10:16:39;2.23;;;2.03;;
5414;SDS011;2730;51.512;7.504;2022-09-23T10:19:22;1.93;;;1.83;;
5414;SDS011;2730;51.512;7.504;2022-09-23T10:21:51;5.43;;;2.40;;
5414;SDS011;2730;51.512;7.504;2022-09-23T10:24:24;1.80;;;1.70;;
5414;SDS011;2730;51.512;7.504;2022-09-23T10:26:55;2.60;;;2.23;;
5414;SDS011;2730;51.512;7.504;2022-09-23T10:29:29;1.90;;;1.80;;
5414;SDS011;2730;51.512;7.504;2022-09-23T10:34:44;2.43;;;2.23;;
5414;SDS011;2730;51.512;7.504;2022-09-23T10:37:16;3.93;;;2.43;;
5414;SDS011;2730;51.512;7.504;2022-09-23T10:39:46;2.07;;;1.90;;
5414;SDS011;2730;51.512;7.504;2022-09-23T10:42:34;3.63;;;1.70;;
5414;SDS011;2730;51.512;7.504;2022-09-23T10:45:32;3.10;;;2.20;;
5414;SDS011;2730;51.512;7.504;2022-09-23T10:48:21;2.50;;;1.80;;
5414;SDS011;2730;51.512;7.504;2022-09-23T10:51:01;2.10;;;2.00;;
5414;SDS011;2730;51.512;7.504;2022-09-23T10:53:34;3.50;;;2.17;;
5414;SDS011;2730;51.512;7.504;2022-09-23T10:56:11;3.30;;;1.73;;
5414;SDS011;2730;51.512;7.504;2022-09-23T10:58:49;1.80;;;1.70;;
5414;SDS011;2730;51.512;7.504;2022-09-23T11:01:45;2.30;;;1.60;;
5414;SDS011;2730;51.512;7.504;2022-09-23T11:07:26;3.30;;;2.00;;
5414;SDS011;2730;51.512;7.504;2022-09-23T11:10:19;2.20;;;2.10;;
5414;SDS011;2730;51.512;7.504;2022-09-23T11:13:07;3.83;;;1.90;;
5414;SDS011;2730;51.512;7.504;2022-09-23T11:15:43;2.63;;;1.80;;
5414;SDS011;2730;51.512;7.504;2022-09-23T11:18:22;1.60;;;1.50;;
5414;SDS011;2730;51.512;7.504;2022-09-23T11:21:30;1.77;;;1.47;;
5414;SDS011;2730;51.512;7.504;2022-09-23T11:24:24;2.70;;;1.87;;
5414;SDS011;2730;51.512;7.504;2022-09-23T11:27:01;2.97;;;1.90;;
5414;SDS011;2730;51.512;7.504;2022-09-23T11:29:43;2.97;;;2.03;;
5414;SDS011;2730;51.512;7.504;2022-09-23T11:35:32;2.37;;;2.17;;
5414;SDS011;2730;51.512;7.504;2022-09-23T11:38:04;1.87;;;1.77;;
5414;SDS011;2730;51.512;7.504;2022-09-23T11:40:34;1.53;;;1.43;;
5414;SDS011;2730;51.512;7.504;2022-09-23T11:43:04;1.93;;;1.83;;
5414;SDS011;2730;51.512;7.504;2022-09-23T11:45:40;4.70;;;2.10;;
5414;SDS011;2730;51.512;7.504;2022-09-23T11:48:14;3.47;;;1.70;;
5414;SDS011;2730;51.512;7.504;2022-09-23T11:50:45;2.80;;;1.50;;
5414;SDS011;2730;51.512;7.504;2022-09-23T11:53:17;1.57;;;1.47;;
5414;SDS011;2730;51.512;7.504;2022-09-23T11:55:48;1.83;;;1.73;;
5414;SDS011;2730;51.512;7.504;2022-09-23T11:58:20;1.47;;;1.30;;
5414;SDS011;2730;51.512;7.504;2022-09-23T12:00:52;1.33;;;1.23;;
5414;SDS011;2730;51.512;7.504;2022-09-23T12:03:24;3.43;;;1.13;;
5414;SDS011;2730;51.512;7.504;2022-09-23T12:06:03;2.57;;;1.63;;
5414;SDS011;2730;51.512;7.504;2022-09-23T12:08:33;1.50;;;1.40;;
5414;SDS011;2730;51.512;7.504;2022-09-23T12:11:03;1.50;;;1.40;;
5414;SDS011;2730;51.512;7.504;2022-09-23T12:13:36;2.13;;;1.40;;
5414;SDS011;2730;51.512;7.504;2022-09-23T12:16:23;4.20;;;1.50;;
5414;SDS011;2730;51.512;7.504;2022-09-23T12:19:13;2.50;;;1.40;;
5414;SDS011;2730;51.512;7.504;2022-09-23T12:21:52;2.03;;;1.63;;
5414;SDS011;2730;51.512;7.504;2022-09-23T12:24:43;4.83;;;1.87;;
5414;SDS011;2730;51.512;7.504;2022-09-23T12:27:15;2.40;;;2.20;;
5414;SDS011;2730;51.512;7.504;2022-09-23T12:29:51;1.90;;;1.80;;
5414;SDS011;2730;51.512;7.504;2022-09-23T12:32:20;4.03;;;1.73;;
5414;SDS011;2730;51.512;7.504;2022-09-23T12:34:48;1.77;;;1.67;;
5414;SDS011;2730;51.512;7.504;2022-09-23T12:37:22;2.50;;;1.87;;
5414;SDS011;2730;51.512;7.504;2022-09-23T12:39:52;2.47;;;1.87;;
5414;SDS011;2730;51.512;7.504;2022-09-23T12:42:20;3.10;;;1.77;;
5414;SDS011;2730;51.512;7.504;2022-09-23T12:44:48;3.10;;;2.00;;
5414;SDS011;2730;51.512;7.504;2022-09-23T12:47:29;3.23;;;1.47;;
5414;SDS011;2730;51.512;7.504;2022-09-23T12:56:18;4.77;;;1.80;;
5414;SDS011;2730;51.512;7.504;2022-09-23T13:01:49;1.90;;;1.60;;
5414;SDS011;2730;51.512;7.504;2022-09-23T13:04:30;2.13;;;1.67;;
5414;SDS011;2730;51.512;7.504;2022-09-23T13:07:16;2.93;;;1.40;;
5414;SDS011;2730;51.512;7.504;2022-09-23T13:09:48;2.03;;;1.50;;
5414;SDS011;2730;51.512;7.504;2022-09-23T13:12:20;3.47;;;1.40;;
5414;SDS011;2730;51.512;7.504;2022-09-23T13:14:53;1.70;;;1.60;;
5414;SDS011;2730;51.512;7.504;2022-09-23T13:17:25;1.60;;;1.50;;
5414;SDS011;2730;51.512;7.504;2022-09-23T13:19:57;2.07;;;1.33;;
5414;SDS011;2730;51.512;7.504;2022-09-23T13:22:39;1.47;;;1.37;;
5414;SDS011;2730;51.512;7.504;2022-09-23T13:25:22;2.50;;;1.70;;
5414;SDS011;2730;51.512;7.504;2022-09-23T13:27:53;2.07;;;1.30;;
5414;SDS011;2730;51.512;7.504;2022-09-23T13:30:22;3.27;;;1.67;;
5414;SDS011;2730;51.512;7.504;2022-09-23T13:32:52;1.40;;;1.30;;
5414;SDS011;2730;51.512;7.504;2022-09-23T13:35:31;1.73;;;1.43;;
5414;SDS011;2730;51.512;7.504;2022-09-23T13:38:07;1.60;;;1.50;;
5414;SDS011;2730;51.512;7.504;2022-09-23T13:40:36;6.80;;;1.50;;
5414;SDS011;2730;51.512;7.504;2022-09-23T13:43:07;1.83;;;1.50;;
5414;SDS011;2730;51.512;7.504;2022-09-23T13:45:39;1.50;;;1.40;;
5414;SDS011;2730;51.512;7.504;2022-09-23T13:48:08;1.50;;;1.40;;
5414;SDS011;2730;51.512;7.504;2022-09-23T13:50:37;1.70;;;1.60;;
5414;SDS011;2730;51.512;7.504;2022-09-23T13:53:09;2.07;;;1.20;;
5414;SDS011;2730;51.512;7.504;2022-09-23T13:55:38;3.63;;;1.13;;
5414;SDS011;2730;51.512;7.504;2022-09-23T13:58:13;1.63;;;1.00;;
5414;SDS011;2730;51.512;7.504;2022-09-23T14:00:42;2.53;;;1.53;;
5414;SDS011;2730;51.512;7.504;2022-09-23T14:03:16;4.40;;;1.40;;
5414;SDS011;2730;51.512;7.504;2022-09-23T14:05:44;1.50;;;1.40;;
5414;SDS011;2730;51.512;7.504;2022-09-23T14:08:11;3.87;;;2.07;;
5414;SDS011;2730;51.512;7.504;2022-09-23T14:10:38;1.27;;;1.17;;
5414;SDS011;2730;51.512;7.504;2022-09-23T14:13:11;3.20;;;1.43;;
5414;SDS011;2730;51.512;7.504;2022-09-23T14:15:45;2.50;;;1.40;;
5414;SDS011;2730;51.512;7.504;2022-09-23T14:18:14;1.20;;;1.10;;
5414;SDS011;2730;51.512;7.504;2022-09-23T14:20:44;2.83;;;1.40;;
5414;SDS011;2730;51.512;7.504;2022-09-23T14:23:14;2.20;;;1.20;;
5414;SDS011;2730;51.512;7.504;2022-09-23T14:25:41;2.67;;;1.43;;
5414;SDS011;2730;51.512;7.504;2022-09-23T14:28:11;1.53;;;1.43;;
5414;SDS011;2730;51.512;7.504;2022-09-23T14:30:41;3.27;;;1.63;;
5414;SDS011;2730;51.512;7.504;2022-09-23T14:33:14;4.40;;;1.60;;
5414;SDS011;2730;51.512;7.504;2022-09-23T14:35:43;1.87;;;1.30;;
5414;SDS011;2730;51.512;7.504;2022-09-23T14:38:19;1.50;;;1.20;;
5414;SDS011;2730;51.512;7.504;2022-09-23T14:41:13;1.33;;;1.17;;
5414;SDS011;2730;51.512;7.504;2022-09-23T14:43:48;2.40;;;1.40;;
5414;SDS011;2730;51.512;7.504;2022-09-23T14:46:19;1.57;;;1.47;;
5414;SDS011;2730;51.512;7.504;2022-09-23T14:48:56;1.20;;;1.10;;
5414;SDS011;2730;51.512;7.504;2022-09-23T14:54:21;2.43;;;1.40;;
5414;SDS011;2730;51.512;7.504;2022-09-23T14:56:59;2.03;;;1.43;;
5414;SDS011;2730;51.512;7.504;2022-09-23T14:59:31;1.93;;;1.70;;
5414;SDS011;2730;51.512;7.504;2022-09-23T15:02:01;4.00;;;1.53;;
5414;SDS011;2730;51.512;7.504;2022-09-23T15:04:29;1.37;;;1.27;;
5414;SDS011;2730;51.512;7.504;2022-09-23T15:06:58;1.47;;;1.37;;
5414;SDS011;2730;51.512;7.504;2022-09-23T15:09:29;3.93;;;1.30;;
5414;SDS011;2730;51.512;7.504;2022-09-23T15:11:58;1.50;;;1.27;;
5414;SDS011;2730;51.512;7.504;2022-09-23T15:14:28;1.90;;;1.60;;
5414;SDS011;2730;51.512;7.504;2022-09-23T15:17:01;1.50;;;1.40;;
5414;SDS011;2730;51.512;7.504;2022-09-23T15:19:30;1.43;;;1.33;;
5414;SDS011;2730;51.512;7.504;2022-09-23T15:21:59;3.00;;;2.23;;
5414;SDS011;2730;51.512;7.504;2022-09-23T15:24:33;2.90;;;1.60;;
5414;SDS011;2730;51.512;7.504;2022-09-23T15:27:08;1.57;;;1.40;;
5414;SDS011;2730;51.512;7.504;2022-09-23T15:29:37;4.50;;;1.50;;
5414;SDS011;2730;51.512;7.504;2022-09-23T15:32:05;2.13;;;1.93;;
5414;SDS011;2730;51.512;7.504;2022-09-23T15:34:33;2.90;;;2.03;;
5414;SDS011;2730;51.512;7.504;2022-09-23T15:37:01;3.60;;;1.80;;
5414;SDS011;2730;51.512;7.504;2022-09-23T15:39:27;4.23;;;2.17;;
5414;SDS011;2730;51.512;7.504;2022-09-23T15:41:54;4.40;;;3.60;;
5414;SDS011;2730;51.512;7.504;2022-09-23T15:44:25;3.80;;;1.50;;
5414;SDS011;2730;51.512;7.504;2022-09-23T15:46:53;7.33;;;3.10;;
5414;SDS011;2730;51.512;7.504;2022-09-23T15:49:25;2.13;;;1.90;;
5414;SDS011;2730;51.512;7.504;2022-09-23T15:51:56;3.47;;;2.37;;
5414;SDS011;2730;51.512;7.504;2022-09-23T15:54:24;2.40;;;2.03;;
5414;SDS011;2730;51.512;7.504;2022-09-23T15:56:51;2.63;;;2.03;;
5414;SDS011;2730;51.512;7.504;2022-09-23T15:59:18;3.10;;;1.87;;
5414;SDS011;2730;51.512;7.504;2022-09-23T16:01:45;5.77;;;2.50;;
5414;SDS011;2730;51.512;7.504;2022-09-23T16:04:12;3.10;;;2.40;;
5414;SDS011;2730;51.512;7.504;2022-09-23T16:06:41;3.77;;;2.27;;
5414;SDS011;2730;51.512;7.504;2022-09-23T16:09:09;5.30;;;2.37;;
5414;SDS011;2730;51.512;7.504;2022-09-23T16:11:37;6.07;;;3.07;;
5414;SDS011;2730;51.512;7.504;2022-09-23T16:14:08;4.47;;;2.43;;
5414;SDS011;2730;51.512;7.504;2022-09-23T16:16:38;5.53;;;2.50;;
5414;SDS011;2730;51.512;7.504;2022-09-23T16:19:06;4.50;;;2.37;;
5414;SDS011;2730;51.512;7.504;2022-09-23T16:21:33;5.53;;;1.97;;
5414;SDS011;2730;51.512;7.504;2022-09-23T16:24:01;3.20;;;2.30;;
5414;SDS011;2730;51.512;7.504;2022-09-23T16:26:29;2.90;;;2.27;;
5414;SDS011;2730;51.512;7.504;2022-09-23T16:28:58;10.27;;;2.53;;
5414;SDS011;2730;51.512;7.504;2022-09-23T16:31:26;6.27;;;2.30;;
5414;SDS011;2730;51.512;7.504;2022-09-23T16:33:55;2.70;;;2.50;;
5414;SDS011;2730;51.512;7.504;2022-09-23T16:36:23;6.47;;;2.80;;
5414;SDS011;2730;51.512;7.504;2022-09-23T16:38:51;2.60;;;2.40;;
5414;SDS011;2730;51.512;7.504;2022-09-23T16:41:21;4.43;;;2.30;;
5414;SDS011;2730;51.512;7.504;2022-09-23T16:43:48;4.50;;;2.20;;
5414;SDS011;2730;51.512;7.504;2022-09-23T16:46:16;5.13;;;3.03;;
5414;SDS011;2730;51.512;7.504;2022-09-23T16:48:43;4.27;;;2.17;;
5414;SDS011;2730;51.512;7.504;2022-09-23T16:51:12;4.20;;;2.73;;
5414;SDS011;2730;51.512;7.504;2022-09-23T16:53:41;9.03;;;3.80;;
5414;SDS011;2730;51.512;7.504;2022-09-23T16:56:08;3.93;;;2.43;;
5414;SDS011;2730;51.512;7.504;2022-09-23T16:58:38;3.57;;;2.33;;
5414;SDS011;2730;51.512;7.504;2022-09-23T17:01:06;7.50;;;2.93;;
5414;SDS011;2730;51.512;7.504;2022-09-23T17:03:54;6.83;;;3.00;;
5414;SDS011;2730;51.512;7.504;2022-09-23T17:06:21;3.70;;;2.60;;
5414;SDS011;2730;51.512;7.504;2022-09-23T17:08:51;4.50;;;2.43;;
5414;SDS011;2730;51.512;7.504;2022-09-23T17:11:18;3.50;;;2.20;;
5414;SDS011;2730;51.512;7.504;2022-09-23T17:13:47;7.73;;;3.07;;
5414;SDS011;2730;51.512;7.504;2022-09-23T17:16:20;3.73;;;3.10;;
5414;SDS011;2730;51.512;7.504;2022-09-23T17:18:49;8.73;;;3.33;;
5414;SDS011;2730;51.512;7.504;2022-09-23T17:21:15;10.67;;;4.70;;
5414;SDS011;2730;51.512;7.504;2022-09-23T17:23:42;5.93;;;2.93;;
5414;SDS011;2730;51.512;7.504;2022-09-23T17:26:09;3.83;;;2.60;;
5414;SDS011;2730;51.512;7.504;2022-09-23T17:28:37;5.88;;;3.40;;
5414;SDS011;2730;51.512;7.504;2022-09-23T17:31:05;4.73;;;3.20;;
5414;SDS011;2730;51.512;7.504;2022-09-23T17:33:33;4.10;;;3.37;;
5414;SDS011;2730;51.512;7.504;2022-09-23T17:36:04;4.47;;;3.50;;
5414;SDS011;2730;51.512;7.504;2022-09-23T17:38:32;7.57;;;3.80;;
5414;SDS011;2730;51.512;7.504;2022-09-23T17:41:00;7.77;;;3.30;;
5414;SDS011;2730;51.512;7.504;2022-09-23T17:43:28;5.07;;;3.60;;
5414;SDS011;2730;51.512;7.504;2022-09-23T17:45:56;4.13;;;3.50;;
5414;SDS011;2730;51.512;7.504;2022-09-23T17:48:28;8.10;;;3.83;;
5414;SDS011;2730;51.512;7.504;2022-09-23T17:50:57;3.63;;;3.33;;
5414;SDS011;2730;51.512;7.504;2022-09-23T17:53:27;5.67;;;3.70;;
5414;SDS011;2730;51.512;7.504;2022-09-23T17:55:56;7.50;;;3.37;;
5414;SDS011;2730;51.512;7.504;2022-09-23T17:58:25;13.23;;;3.50;;
5414;SDS011;2730;51.512;7.504;2022-09-23T18:00:53;5.10;;;3.53;;
5414;SDS011;2730;51.512;7.504;2022-09-23T18:03:21;5.97;;;3.80;;
5414;SDS011;2730;51.512;7.504;2022-09-23T18:05:49;4.57;;;3.90;;
5414;SDS011;2730;51.512;7.504;2022-09-23T18:08:16;4.47;;;3.20;;
5414;SDS011;2730;51.512;7.504;2022-09-23T18:10:43;7.80;;;3.80;;
5414;SDS011;2730;51.512;7.504;2022-09-23T18:13:10;8.70;;;4.00;;
5414;SDS011;2730;51.512;7.504;2022-09-23T18:15:37;13.27;;;5.17;;
5414;SDS011;2730;51.512;7.504;2022-09-23T18:18:05;7.73;;;4.40;;
5414;SDS011;2730;51.512;7.504;2022-09-23T18:20:32;10.13;;;5.00;;
5414;SDS011;2730;51.512;7.504;2022-09-23T18:23:01;8.63;;;5.37;;
5414;SDS011;2730;51.512;7.504;2022-09-23T18:25:27;12.40;;;5.30;;
5414;SDS011;2730;51.512;7.504;2022-09-23T18:27:55;17.77;;;5.43;;
5414;SDS011;2730;51.512;7.504;2022-09-23T18:30:21;10.90;;;4.83;;
5414;SDS011;2730;51.512;7.504;2022-09-23T18:32:49;10.47;;;5.03;;
5414;SDS011;2730;51.512;7.504;2022-09-23T18:35:16;12.47;;;5.67;;
5414;SDS011;2730;51.512;7.504;2022-09-23T18:37:43;13.75;;;5.22;;
5414;SDS011;2730;51.512;7.504;2022-09-23T18:40:11;10.90;;;5.00;;
5414;SDS011;2730;51.512;7.504;2022-09-23T18:42:38;8.47;;;5.43;;
5414;SDS011;2730;51.512;7.504;2022-09-23T18:45:06;8.97;;;5.47;;
5414;SDS011;2730;51.512;7.504;2022-09-23T18:47:35;11.40;;;5.60;;
5414;SDS011;2730;51.512;7.504;2022-09-23T18:50:20;12.33;;;5.07;;
5414;SDS011;2730;51.512;7.504;2022-09-23T18:53:07;6.23;;;4.47;;
5414;SDS011;2730;51.512;7.504;2022-09-23T18:55:35;9.10;;;4.60;;
5414;SDS011;2730;51.512;7.504;2022-09-23T18:58:04;8.90;;;5.10;;
5414;SDS011;2730;51.512;7.504;2022-09-23T19:00:31;10.02;;;4.65;;
5414;SDS011;2730;51.512;7.504;2022-09-23T19:02:59;5.88;;;4.57;;
5414;SDS011;2730;51.512;7.504;2022-09-23T19:05:25;9.73;;;5.40;;
5414;SDS011;2730;51.512;7.504;2022-09-23T19:07:52;9.50;;;4.90;;
5414;SDS011;2730;51.512;7.504;2022-09-23T19:10:19;8.53;;;4.93;;
5414;SDS011;2730;51.512;7.504;2022-09-23T19:12:47;9.60;;;5.57;;
5414;SDS011;2730;51.512;7.504;2022-09-23T19:15:14;11.53;;;5.63;;
5414;SDS011;2730;51.512;7.504;2022-09-23T19:17:41;8.97;;;4.83;;
5414;SDS011;2730;51.512;7.504;2022-09-23T19:20:08;6.72;;;4.85;;
5414;SDS011;2730;51.512;7.504;2022-09-23T19:22:36;8.70;;;5.47;;
5414;SDS011;2730;51.512;7.504;2022-09-23T19:25:03;9.17;;;6.00;;
5414;SDS011;2730;51.512;7.504;2022-09-23T19:27:31;8.35;;;5.30;;
5414;SDS011;2730;51.512;7.504;2022-09-23T19:30:00;10.63;;;5.55;;
5414;SDS011;2730;51.512;7.504;2022-09-23T19:32:27;5.33;;;4.77;;
5414;SDS011;2730;51.512;7.504;2022-09-23T19:34:54;9.30;;;5.25;;
5414;SDS011;2730;51.512;7.504;2022-09-23T19:37:23;6.47;;;4.75;;
5414;SDS011;2730;51.512;7.504;2022-09-23T19:39:50;9.70;;;5.43;;
5414;SDS011;2730;51.512;7.504;2022-09-23T19:42:17;10.10;;;4.63;;
5414;SDS011;2730;51.512;7.504;2022-09-23T19:44:43;14.50;;;5.67;;
5414;SDS011;2730;51.512;7.504;2022-09-23T19:47:12;7.93;;;4.18;;
5414;SDS011;2730;51.512;7.504;2022-09-23T19:49:41;10.83;;;4.63;;
5414;SDS011;2730;51.512;7.504;2022-09-23T19:52:08;6.55;;;4.10;;
5414;SDS011;2730;51.512;7.504;2022-09-23T19:54:35;9.20;;;5.13;;
5414;SDS011;2730;51.512;7.504;2022-09-23T19:57:02;6.10;;;4.43;;
5414;SDS011;2730;51.512;7.504;2022-09-23T19:59:29;5.53;;;4.53;;
5414;SDS011;2730;51.512;7.504;2022-09-23T20:01:56;5.65;;;4.60;;
5414;SDS011;2730;51.512;7.504;2022-09-23T20:04:24;9.60;;;4.27;;
5414;SDS011;2730;51.512;7.504;2022-09-23T20:06:51;4.77;;;3.67;;
5414;SDS011;2730;51.512;7.504;2022-09-23T20:09:17;3.75;;;3.42;;
5414;SDS011;2730;51.512;7.504;2022-09-23T20:11:44;6.63;;;4.55;;
5414;SDS011;2730;51.512;7.504;2022-09-23T20:14:11;5.97;;;3.60;;
5414;SDS011;2730;51.512;7.504;2022-09-23T20:16:38;8.18;;;4.35;;
5414;SDS011;2730;51.512;7.504;2022-09-23T20:19:05;7.80;;;4.10;;
5414;SDS011;2730;51.512;7.504;2022-09-23T20:21:33;4.75;;;3.88;;
5414;SDS011;2730;51.512;7.504;2022-09-23T20:24:00;10.10;;;3.80;;
5414;SDS011;2730;51.512;7.504;2022-09-23T20:26:30;9.98;;;4.28;;
5414;SDS011;2730;51.512;7.504;2022-09-23T20:29:14;6.22;;;3.45;;
5414;SDS011;2730;51.512;7.504;2022-09-23T20:31:41;4.75;;;3.75;;
5414;SDS011;2730;51.512;7.504;2022-09-23T20:34:08;11.02;;;4.70;;
5414;SDS011;2730;51.512;7.504;2022-09-23T20:36:37;4.50;;;3.47;;
5414;SDS011;2730;51.512;7.504;2022-09-23T20:39:06;7.13;;;3.75;;
5414;SDS011;2730;51.512;7.504;2022-09-23T20:41:34;12.23;;;4.33;;
5414;SDS011;2730;51.512;7.504;2022-09-23T20:44:03;5.40;;;3.70;;
5414;SDS011;2730;51.512;7.504;2022-09-23T20:46:31;4.05;;;3.67;;
5414;SDS011;2730;51.512;7.504;2022-09-23T20:48:59;4.18;;;3.38;;
5414;SDS011;2730;51.512;7.504;2022-09-23T20:51:26;5.32;;;3.80;;
5414;SDS011;2730;51.512;7.504;2022-09-23T20:53:54;5.55;;;3.65;;
5414;SDS011;2730;51.512;7.504;2022-09-23T20:56:21;3.75;;;3.35;;
5414;SDS011;2730;51.512;7.504;2022-09-23T20:58:49;4.10;;;3.20;;
5414;SDS011;2730;51.512;7.504;2022-09-23T21:01:18;4.70;;;2.97;;
5414;SDS011;2730;51.512;7.504;2022-09-23T21:03:46;6.20;;;2.88;;
5414;SDS011;2730;51.512;7.504;2022-09-23T21:06:16;5.07;;;2.80;;